sensor_id;sensor_type;location;lat;lon;timestamp;P1;durP1;ratioP1;P2;durP2;ratioP2
55134;SDS011;41031;44.750;11.308;2024-03-23T00:52:28;21.17;;;15.00;;
55134;SDS011;41031;44.750;11.308;2024-03-23T00:54:55;19.17;;;14.40;;
55134;SDS011;41031;44.750;11.308;2024-03-23T00:57:21;22.67;;;15.70;;
55134;SDS011;41031;44.750;11.308;2024-03-23T00:59:47;21.63;;;16.27;;
55134;SDS011;41031;44.750;11.308;2024-03-23T01:02:13;18.27;;;14.97;;
55134;SDS011;41031;44.750;11.308;2024-03-23T01:04:39;20.47;;;15.63;;
55134;SDS011;41031;44.750;11.308;2024-03-23T01:07:06;20.67;;;13.60;;
55134;SDS011;41031;44.750;11.308;2024-03-23T01:09:32;20.53;;;14.17;;
55134;SDS011;41031;44.750;11.308;2024-03-23T01:11:58;19.93;;;14.83;;
55134;SDS011;41031;44.750;11.308;2024-03-23T01:14:24;23.70;;;16.37;;
55134;SDS011;41031;44.750;11.308;2024-03-23T01:16:50;19.83;;;15.73;;
55134;SDS011;41031;44.750;11.308;2024-03-23T01:19:17;21.10;;;14.97;;
55134;SDS011;41031;44.750;11.308;2024-03-23T01:21:43;21.17;;;16.60;;
55134;SDS011;41031;44.750;11.308;2024-03-23T01:24:09;20.37;;;15.17;;
55134;SDS011;41031;44.750;11.308;2024-03-23T01:26:36;23.93;;;16.67;;
55134;SDS011;41031;44.750;11.308;2024-03-23T01:29:02;23.67;;;16.03;;
55134;SDS011;41031;44.750;11.308;2024-03-23T01:31:29;22.50;;;17.33;;
55134;SDS011;41031;44.750;11.308;2024-03-23T01:34:41;24.47;;;16.47;;
55134;SDS011;41031;44.750;11.308;2024-03-23T01:40:40;20.07;;;15.90;;
55134;SDS011;41031;44.750;11.308;2024-03-23T01:43:07;24.33;;;15.90;;
55134;SDS011;41031;44.750;11.308;2024-03-23T01:45:34;19.33;;;14.07;;
55134;SDS011;41031;44.750;11.308;2024-03-23T01:48:01;20.33;;;14.70;;
55134;SDS011;41031;44.750;11.308;2024-03-23T01:50:28;20.30;;;15.27;;
55134;SDS011;41031;44.750;11.308;2024-03-23T01:52:58;19.97;;;14.83;;
55134;SDS011;41031;44.750;11.308;2024-03-23T01:55:31;18.77;;;14.03;;
55134;SDS011;41031;44.750;11.308;2024-03-23T01:57:58;17.00;;;12.97;;
55134;SDS011;41031;44.750;11.308;2024-03-23T02:00:24;16.20;;;12.83;;
55134;SDS011;41031;44.750;11.308;2024-03-23T02:02:52;17.20;;;12.70;;
55134;SDS011;41031;44.750;11.308;2024-03-23T02:05:21;18.37;;;14.13;;
55134;SDS011;41031;44.750;11.308;2024-03-23T02:07:48;20.00;;;13.27;;
55134;SDS011;41031;44.750;11.308;2024-03-23T02:10:16;18.60;;;13.10;;
55134;SDS011;41031;44.750;11.308;2024-03-23T02:12:42;17.30;;;13.80;;
55134;SDS011;41031;44.750;11.308;2024-03-23T02:15:09;16.93;;;13.13;;
55134;SDS011;41031;44.750;11.308;2024-03-23T02:17:35;17.27;;;13.70;;
55134;SDS011;41031;44.750;11.308;2024-03-23T02:20:05;19.37;;;14.27;;
55134;SDS011;41031;44.750;11.308;2024-03-23T02:22:38;14.17;;;11.57;;
55134;SDS011;41031;44.750;11.308;2024-03-23T02:25:05;16.63;;;13.53;;
55134;SDS011;41031;44.750;11.308;2024-03-23T02:27:32;22.03;;;15.73;;
55134;SDS011;41031;44.750;11.308;2024-03-23T02:30:00;18.30;;;14.33;;
55134;SDS011;41031;44.750;11.308;2024-03-23T02:32:26;23.87;;;13.93;;
55134;SDS011;41031;44.750;11.308;2024-03-23T02:34:53;19.80;;;14.53;;
55134;SDS011;41031;44.750;11.308;2024-03-23T02:37:19;19.07;;;13.60;;
55134;SDS011;41031;44.750;11.308;2024-03-23T02:39:45;17.23;;;11.27;;
55134;SDS011;41031;44.750;11.308;2024-03-23T02:42:11;13.80;;;10.87;;
55134;SDS011;41031;44.750;11.308;2024-03-23T02:44:37;17.13;;;11.83;;
55134;SDS011;41031;44.750;11.308;2024-03-23T02:47:04;16.53;;;12.47;;
55134;SDS011;41031;44.750;11.308;2024-03-23T02:49:30;19.70;;;13.77;;
55134;SDS011;41031;44.750;11.308;2024-03-23T02:51:57;18.97;;;13.20;;
55134;SDS011;41031;44.750;11.308;2024-03-23T02:54:23;20.03;;;13.10;;
55134;SDS011;41031;44.750;11.308;2024-03-23T02:56:49;20.10;;;13.47;;
55134;SDS011;41031;44.750;11.308;2024-03-23T02:59:15;22.30;;;13.63;;
55134;SDS011;41031;44.750;11.308;2024-03-23T03:01:41;17.67;;;13.07;;
55134;SDS011;41031;44.750;11.308;2024-03-23T03:04:07;17.07;;;13.13;;
55134;SDS011;41031;44.750;11.308;2024-03-23T03:06:33;16.03;;;12.47;;
55134;SDS011;41031;44.750;11.308;2024-03-23T03:09:00;18.23;;;12.33;;
55134;SDS011;41031;44.750;11.308;2024-03-23T03:11:26;16.07;;;12.80;;
55134;SDS011;41031;44.750;11.308;2024-03-23T03:13:52;17.50;;;12.67;;
55134;SDS011;41031;44.750;11.308;2024-03-23T03:16:18;16.90;;;12.17;;
55134;SDS011;41031;44.750;11.308;2024-03-23T03:18:44;13.97;;;11.53;;
55134;SDS011;41031;44.750;11.308;2024-03-23T03:21:12;13.13;;;10.83;;
55134;SDS011;41031;44.750;11.308;2024-03-23T03:23:38;15.57;;;10.97;;
55134;SDS011;41031;44.750;11.308;2024-03-23T03:26:05;16.77;;;11.17;;
55134;SDS011;41031;44.750;11.308;2024-03-23T03:28:32;13.77;;;10.83;;
55134;SDS011;41031;44.750;11.308;2024-03-23T03:30:59;17.80;;;12.60;;
55134;SDS011;41031;44.750;11.308;2024-03-23T03:33:26;16.43;;;12.20;;
55134;SDS011;41031;44.750;11.308;2024-03-23T03:40:46;15.07;;;11.53;;
55134;SDS011;41031;44.750;11.308;2024-03-23T03:43:19;18.20;;;12.00;;
55134;SDS011;41031;44.750;11.308;2024-03-23T03:45:53;13.73;;;11.13;;
55134;SDS011;41031;44.750;11.308;2024-03-23T03:48:20;18.00;;;11.60;;
55134;SDS011;41031;44.750;11.308;2024-03-23T03:50:47;18.13;;;12.13;;
55134;SDS011;41031;44.750;11.308;2024-03-23T03:53:14;13.93;;;11.47;;
55134;SDS011;41031;44.750;11.308;2024-03-23T03:55:40;16.60;;;12.67;;
55134;SDS011;41031;44.750;11.308;2024-03-23T03:58:07;16.30;;;12.40;;
55134;SDS011;41031;44.750;11.308;2024-03-23T04:00:34;15.73;;;12.33;;
55134;SDS011;41031;44.750;11.308;2024-03-23T04:11:22;17.90;;;12.70;;
55134;SDS011;41031;44.750;11.308;2024-03-23T04:13:50;19.03;;;12.93;;
55134;SDS011;41031;44.750;11.308;2024-03-23T04:16:34;19.93;;;13.67;;
55134;SDS011;41031;44.750;11.308;2024-03-23T04:19:02;19.00;;;13.93;;
55134;SDS011;41031;44.750;11.308;2024-03-23T04:21:29;20.00;;;13.33;;
55134;SDS011;41031;44.750;11.308;2024-03-23T04:23:56;18.60;;;12.57;;
55134;SDS011;41031;44.750;11.308;2024-03-23T04:26:22;19.60;;;14.33;;
55134;SDS011;41031;44.750;11.308;2024-03-23T04:28:48;19.33;;;14.07;;
55134;SDS011;41031;44.750;11.308;2024-03-23T04:31:15;17.20;;;12.80;;
55134;SDS011;41031;44.750;11.308;2024-03-23T04:33:41;19.37;;;14.17;;
55134;SDS011;41031;44.750;11.308;2024-03-23T04:36:08;21.23;;;14.23;;
55134;SDS011;41031;44.750;11.308;2024-03-23T04:38:35;21.03;;;14.00;;
55134;SDS011;41031;44.750;11.308;2024-03-23T04:41:01;20.00;;;13.20;;
55134;SDS011;41031;44.750;11.308;2024-03-23T04:43:28;19.27;;;13.57;;
55134;SDS011;41031;44.750;11.308;2024-03-23T04:45:56;18.67;;;13.17;;
55134;SDS011;41031;44.750;11.308;2024-03-23T04:48:58;16.13;;;13.27;;
55134;SDS011;41031;44.750;11.308;2024-03-23T04:51:42;18.03;;;13.67;;
55134;SDS011;41031;44.750;11.308;2024-03-23T04:54:30;20.47;;;13.20;;
55134;SDS011;41031;44.750;11.308;2024-03-23T04:57:12;18.73;;;12.77;;
55134;SDS011;41031;44.750;11.308;2024-03-23T05:00:00;19.87;;;13.80;;
55134;SDS011;41031;44.750;11.308;2024-03-23T05:02:27;23.90;;;13.50;;
55134;SDS011;41031;44.750;11.308;2024-03-23T05:04:53;20.37;;;13.27;;
55134;SDS011;41031;44.750;11.308;2024-03-23T05:07:19;18.37;;;12.97;;
55134;SDS011;41031;44.750;11.308;2024-03-23T05:09:46;16.30;;;12.17;;
55134;SDS011;41031;44.750;11.308;2024-03-23T05:12:13;18.23;;;11.97;;
55134;SDS011;41031;44.750;11.308;2024-03-23T05:14:39;16.57;;;12.43;;
55134;SDS011;41031;44.750;11.308;2024-03-23T05:17:05;18.63;;;12.33;;
55134;SDS011;41031;44.750;11.308;2024-03-23T05:19:32;14.90;;;12.30;;
55134;SDS011;41031;44.750;11.308;2024-03-23T05:21:58;15.97;;;11.30;;
55134;SDS011;41031;44.750;11.308;2024-03-23T05:24:25;14.83;;;11.57;;
55134;SDS011;41031;44.750;11.308;2024-03-23T05:26:51;17.13;;;11.53;;
55134;SDS011;41031;44.750;11.308;2024-03-23T05:29:17;15.83;;;11.53;;
55134;SDS011;41031;44.750;11.308;2024-03-23T05:31:43;23.93;;;11.63;;
55134;SDS011;41031;44.750;11.308;2024-03-23T05:34:14;15.70;;;11.10;;
55134;SDS011;41031;44.750;11.308;2024-03-23T05:36:40;16.13;;;11.30;;
55134;SDS011;41031;44.750;11.308;2024-03-23T05:39:06;16.70;;;10.83;;
55134;SDS011;41031;44.750;11.308;2024-03-23T05:41:33;14.03;;;11.13;;
55134;SDS011;41031;44.750;11.308;2024-03-23T05:44:02;15.73;;;10.90;;
55134;SDS011;41031;44.750;11.308;2024-03-23T05:46:28;15.40;;;10.97;;
55134;SDS011;41031;44.750;11.308;2024-03-23T05:48:54;15.10;;;10.80;;
55134;SDS011;41031;44.750;11.308;2024-03-23T05:51:28;14.63;;;10.70;;
55134;SDS011;41031;44.750;11.308;2024-03-23T05:53:54;15.30;;;10.93;;
55134;SDS011;41031;44.750;11.308;2024-03-23T05:56:20;15.53;;;10.93;;
55134;SDS011;41031;44.750;11.308;2024-03-23T05:58:47;11.77;;;9.73;;
55134;SDS011;41031;44.750;11.308;2024-03-23T06:01:14;11.23;;;8.87;;
55134;SDS011;41031;44.750;11.308;2024-03-23T06:03:40;13.53;;;9.27;;
55134;SDS011;41031;44.750;11.308;2024-03-23T06:06:06;13.57;;;9.93;;
55134;SDS011;41031;44.750;11.308;2024-03-23T06:08:38;13.63;;;10.43;;
55134;SDS011;41031;44.750;11.308;2024-03-23T06:11:05;15.67;;;10.73;;
55134;SDS011;41031;44.750;11.308;2024-03-23T06:13:32;15.00;;;10.63;;
55134;SDS011;41031;44.750;11.308;2024-03-23T06:15:59;11.10;;;9.13;;
55134;SDS011;41031;44.750;11.308;2024-03-23T06:18:26;12.90;;;10.53;;
55134;SDS011;41031;44.750;11.308;2024-03-23T06:20:53;16.10;;;10.17;;
55134;SDS011;41031;44.750;11.308;2024-03-23T06:23:20;11.80;;;9.27;;
55134;SDS011;41031;44.750;11.308;2024-03-23T06:25:46;13.03;;;9.43;;
55134;SDS011;41031;44.750;11.308;2024-03-23T06:28:13;10.83;;;8.43;;
55134;SDS011;41031;44.750;11.308;2024-03-23T06:30:39;13.00;;;8.53;;
55134;SDS011;41031;44.750;11.308;2024-03-23T06:33:05;10.80;;;7.60;;
55134;SDS011;41031;44.750;11.308;2024-03-23T06:35:32;12.07;;;7.53;;
55134;SDS011;41031;44.750;11.308;2024-03-23T06:37:58;12.07;;;7.60;;
55134;SDS011;41031;44.750;11.308;2024-03-23T06:40:24;8.43;;;7.10;;
55134;SDS011;41031;44.750;11.308;2024-03-23T06:42:50;13.03;;;7.77;;
55134;SDS011;41031;44.750;11.308;2024-03-23T06:45:16;11.30;;;7.77;;
55134;SDS011;41031;44.750;11.308;2024-03-23T06:47:49;9.67;;;7.40;;
55134;SDS011;41031;44.750;11.308;2024-03-23T06:50:16;14.07;;;6.67;;
55134;SDS011;41031;44.750;11.308;2024-03-23T06:52:42;9.47;;;8.10;;
55134;SDS011;41031;44.750;11.308;2024-03-23T06:55:08;10.43;;;8.17;;
55134;SDS011;41031;44.750;11.308;2024-03-23T06:57:34;9.43;;;7.27;;
55134;SDS011;41031;44.750;11.308;2024-03-23T07:00:01;9.43;;;7.57;;
55134;SDS011;41031;44.750;11.308;2024-03-23T07:02:28;9.70;;;7.20;;
55134;SDS011;41031;44.750;11.308;2024-03-23T07:04:55;7.93;;;7.13;;
55134;SDS011;41031;44.750;11.308;2024-03-23T07:07:22;8.03;;;7.23;;
55134;SDS011;41031;44.750;11.308;2024-03-23T07:09:48;9.37;;;7.03;;
55134;SDS011;41031;44.750;11.308;2024-03-23T07:12:14;9.10;;;7.30;;
55134;SDS011;41031;44.750;11.308;2024-03-23T07:14:40;9.23;;;7.20;;
55134;SDS011;41031;44.750;11.308;2024-03-23T07:17:06;10.40;;;7.53;;
55134;SDS011;41031;44.750;11.308;2024-03-23T07:19:32;12.57;;;7.40;;
55134;SDS011;41031;44.750;11.308;2024-03-23T07:21:59;8.93;;;7.93;;
55134;SDS011;41031;44.750;11.308;2024-03-23T07:24:25;8.77;;;7.00;;
55134;SDS011;41031;44.750;11.308;2024-03-23T07:26:51;8.57;;;6.67;;
55134;SDS011;41031;44.750;11.308;2024-03-23T07:29:19;12.53;;;7.27;;
55134;SDS011;41031;44.750;11.308;2024-03-23T07:31:46;10.07;;;7.50;;
55134;SDS011;41031;44.750;11.308;2024-03-23T07:34:12;9.77;;;6.97;;
55134;SDS011;41031;44.750;11.308;2024-03-23T07:36:39;6.97;;;6.00;;
55134;SDS011;41031;44.750;11.308;2024-03-23T07:39:05;9.07;;;7.20;;
55134;SDS011;41031;44.750;11.308;2024-03-23T07:41:31;9.33;;;6.40;;
55134;SDS011;41031;44.750;11.308;2024-03-23T07:43:57;11.27;;;6.40;;
55134;SDS011;41031;44.750;11.308;2024-03-23T07:46:24;11.43;;;7.33;;
55134;SDS011;41031;44.750;11.308;2024-03-23T07:48:51;12.57;;;8.30;;
55134;SDS011;41031;44.750;11.308;2024-03-23T07:51:18;11.33;;;7.27;;
55134;SDS011;41031;44.750;11.308;2024-03-23T07:53:46;9.27;;;7.07;;
55134;SDS011;41031;44.750;11.308;2024-03-23T07:56:14;8.70;;;7.17;;
55134;SDS011;41031;44.750;11.308;2024-03-23T07:58:41;10.23;;;7.70;;
55134;SDS011;41031;44.750;11.308;2024-03-23T08:01:08;10.43;;;7.60;;
55134;SDS011;41031;44.750;11.308;2024-03-23T08:03:40;10.43;;;7.77;;
55134;SDS011;41031;44.750;11.308;2024-03-23T08:06:08;8.67;;;7.40;;
55134;SDS011;41031;44.750;11.308;2024-03-23T08:08:34;14.00;;;7.60;;
55134;SDS011;41031;44.750;11.308;2024-03-23T08:11:01;11.47;;;7.93;;
55134;SDS011;41031;44.750;11.308;2024-03-23T08:13:28;7.70;;;6.53;;
55134;SDS011;41031;44.750;11.308;2024-03-23T08:15:58;8.80;;;7.30;;
55134;SDS011;41031;44.750;11.308;2024-03-23T08:18:27;8.80;;;7.03;;
55134;SDS011;41031;44.750;11.308;2024-03-23T08:21:01;12.43;;;7.97;;
55134;SDS011;41031;44.750;11.308;2024-03-23T08:23:31;9.37;;;8.20;;
55134;SDS011;41031;44.750;11.308;2024-03-23T08:28:33;9.40;;;7.60;;
55134;SDS011;41031;44.750;11.308;2024-03-23T08:31:10;8.33;;;7.43;;
55134;SDS011;41031;44.750;11.308;2024-03-23T08:33:38;10.93;;;8.17;;
55134;SDS011;41031;44.750;11.308;2024-03-23T08:36:06;11.17;;;8.57;;
55134;SDS011;41031;44.750;11.308;2024-03-23T08:38:33;10.00;;;7.87;;
55134;SDS011;41031;44.750;11.308;2024-03-23T08:41:03;10.97;;;8.17;;
55134;SDS011;41031;44.750;11.308;2024-03-23T08:43:34;11.80;;;7.43;;
55134;SDS011;41031;44.750;11.308;2024-03-23T08:46:06;16.80;;;8.30;;
55134;SDS011;41031;44.750;11.308;2024-03-23T08:48:34;11.40;;;7.13;;
55134;SDS011;41031;44.750;11.308;2024-03-23T08:51:05;9.40;;;7.00;;
55134;SDS011;41031;44.750;11.308;2024-03-23T08:53:33;12.23;;;7.20;;
55134;SDS011;41031;44.750;11.308;2024-03-23T08:56:04;9.30;;;6.53;;
55134;SDS011;41031;44.750;11.308;2024-03-23T08:58:32;11.77;;;6.00;;
55134;SDS011;41031;44.750;11.308;2024-03-23T09:01:03;6.80;;;4.93;;
55134;SDS011;41031;44.750;11.308;2024-03-23T09:03:30;6.73;;;5.33;;
55134;SDS011;41031;44.750;11.308;2024-03-23T09:05:56;10.03;;;6.00;;
55134;SDS011;41031;44.750;11.308;2024-03-23T09:08:24;7.50;;;5.03;;
55134;SDS011;41031;44.750;11.308;2024-03-23T09:10:51;6.73;;;5.20;;
55134;SDS011;41031;44.750;11.308;2024-03-23T09:13:17;9.10;;;5.17;;
55134;SDS011;41031;44.750;11.308;2024-03-23T09:15:50;7.77;;;5.87;;
55134;SDS011;41031;44.750;11.308;2024-03-23T09:18:22;6.33;;;4.87;;
55134;SDS011;41031;44.750;11.308;2024-03-23T09:20:48;8.43;;;5.70;;
55134;SDS011;41031;44.750;11.308;2024-03-23T09:23:14;10.27;;;6.90;;
55134;SDS011;41031;44.750;11.308;2024-03-23T09:25:40;8.27;;;5.03;;
55134;SDS011;41031;44.750;11.308;2024-03-23T09:28:07;7.57;;;4.60;;
55134;SDS011;41031;44.750;11.308;2024-03-23T09:30:35;6.63;;;4.43;;
55134;SDS011;41031;44.750;11.308;2024-03-23T09:33:13;6.57;;;4.40;;
55134;SDS011;41031;44.750;11.308;2024-03-23T09:35:40;5.87;;;3.90;;
55134;SDS011;41031;44.750;11.308;2024-03-23T09:38:08;5.27;;;3.93;;
55134;SDS011;41031;44.750;11.308;2024-03-23T09:40:35;8.07;;;4.57;;
55134;SDS011;41031;44.750;11.308;2024-03-23T09:43:10;6.40;;;4.83;;
55134;SDS011;41031;44.750;11.308;2024-03-23T09:45:40;5.67;;;4.10;;
55134;SDS011;41031;44.750;11.308;2024-03-23T09:48:06;7.53;;;4.10;;
55134;SDS011;41031;44.750;11.308;2024-03-23T09:50:38;7.53;;;4.50;;
55134;SDS011;41031;44.750;11.308;2024-03-23T09:53:08;6.13;;;4.77;;
55134;SDS011;41031;44.750;11.308;2024-03-23T09:55:37;4.43;;;3.53;;
55134;SDS011;41031;44.750;11.308;2024-03-23T09:58:04;7.60;;;3.60;;
55134;SDS011;41031;44.750;11.308;2024-03-23T10:00:34;5.87;;;3.20;;
55134;SDS011;41031;44.750;11.308;2024-03-23T10:03:01;3.93;;;2.97;;
55134;SDS011;41031;44.750;11.308;2024-03-23T10:05:30;5.90;;;3.70;;
55134;SDS011;41031;44.750;11.308;2024-03-23T10:07:57;7.83;;;3.70;;
55134;SDS011;41031;44.750;11.308;2024-03-23T10:10:27;6.63;;;4.20;;
55134;SDS011;41031;44.750;11.308;2024-03-23T10:12:54;4.77;;;3.70;;
55134;SDS011;41031;44.750;11.308;2024-03-23T10:15:21;5.20;;;3.53;;
55134;SDS011;41031;44.750;11.308;2024-03-23T10:17:49;4.47;;;3.43;;
55134;SDS011;41031;44.750;11.308;2024-03-23T10:20:19;6.23;;;3.57;;
55134;SDS011;41031;44.750;11.308;2024-03-23T10:22:50;5.50;;;4.30;;
55134;SDS011;41031;44.750;11.308;2024-03-23T10:25:24;7.33;;;5.13;;
55134;SDS011;41031;44.750;11.308;2024-03-23T10:28:00;5.03;;;4.07;;
55134;SDS011;41031;44.750;11.308;2024-03-23T10:30:27;5.80;;;4.50;;
55134;SDS011;41031;44.750;11.308;2024-03-23T10:33:15;4.50;;;4.00;;
55134;SDS011;41031;44.750;11.308;2024-03-23T10:36:07;6.50;;;4.37;;
55134;SDS011;41031;44.750;11.308;2024-03-23T10:38:33;9.27;;;4.70;;
55134;SDS011;41031;44.750;11.308;2024-03-23T10:41:00;6.00;;;3.97;;
55134;SDS011;41031;44.750;11.308;2024-03-23T10:43:27;12.87;;;4.90;;
55134;SDS011;41031;44.750;11.308;2024-03-23T10:45:54;9.63;;;5.03;;
55134;SDS011;41031;44.750;11.308;2024-03-23T10:48:20;22.90;;;6.57;;
55134;SDS011;41031;44.750;11.308;2024-03-23T10:50:46;12.40;;;5.63;;
55134;SDS011;41031;44.750;11.308;2024-03-23T10:53:13;8.23;;;5.07;;
55134;SDS011;41031;44.750;11.308;2024-03-23T10:55:40;6.10;;;5.00;;
55134;SDS011;41031;44.750;11.308;2024-03-23T10:58:09;10.40;;;5.20;;
55134;SDS011;41031;44.750;11.308;2024-03-23T11:00:38;10.90;;;5.73;;
55134;SDS011;41031;44.750;11.308;2024-03-23T11:03:51;9.13;;;5.40;;
55134;SDS011;41031;44.750;11.308;2024-03-23T11:06:02;9.43;;;5.70;;
55134;SDS011;41031;44.750;11.308;2024-03-23T11:08:30;6.70;;;4.77;;
55134;SDS011;41031;44.750;11.308;2024-03-23T11:11:20;7.70;;;5.77;;
55134;SDS011;41031;44.750;11.308;2024-03-23T11:13:50;8.23;;;5.97;;
55134;SDS011;41031;44.750;11.308;2024-03-23T11:18:51;6.57;;;5.07;;
55134;SDS011;41031;44.750;11.308;2024-03-23T11:24:22;10.50;;;5.77;;
55134;SDS011;41031;44.750;11.308;2024-03-23T11:26:48;9.00;;;6.27;;
55134;SDS011;41031;44.750;11.308;2024-03-23T11:29:15;8.27;;;5.93;;
55134;SDS011;41031;44.750;11.308;2024-03-23T11:34:16;8.10;;;6.00;;
55134;SDS011;41031;44.750;11.308;2024-03-23T11:36:44;43.13;;;38.47;;
55134;SDS011;41031;44.750;11.308;2024-03-23T11:39:12;494.80;;;362.37;;
55134;SDS011;41031;44.750;11.308;2024-03-23T11:41:51;1593.77;;;676.17;;
55134;SDS011;41031;44.750;11.308;2024-03-23T11:44:22;1038.47;;;442.93;;
55134;SDS011;41031;44.750;11.308;2024-03-23T11:46:51;203.60;;;92.07;;
55134;SDS011;41031;44.750;11.308;2024-03-23T11:49:22;73.43;;;41.70;;
55134;SDS011;41031;44.750;11.308;2024-03-23T11:51:51;16.83;;;9.40;;
55134;SDS011;41031;44.750;11.308;2024-03-23T11:54:25;13.23;;;9.17;;
55134;SDS011;41031;44.750;11.308;2024-03-23T11:56:56;11.43;;;8.10;;
55134;SDS011;41031;44.750;11.308;2024-03-23T11:59:39;9.70;;;6.27;;
55134;SDS011;41031;44.750;11.308;2024-03-23T12:02:06;9.07;;;6.90;;
55134;SDS011;41031;44.750;11.308;2024-03-23T12:04:37;10.07;;;6.50;;
55134;SDS011;41031;44.750;11.308;2024-03-23T12:07:18;9.23;;;6.67;;
55134;SDS011;41031;44.750;11.308;2024-03-23T12:09:46;9.40;;;7.40;;
55134;SDS011;41031;44.750;11.308;2024-03-23T12:12:28;9.30;;;6.77;;
55134;SDS011;41031;44.750;11.308;2024-03-23T12:15:01;9.53;;;6.13;;
55134;SDS011;41031;44.750;11.308;2024-03-23T12:17:31;8.47;;;6.13;;
55134;SDS011;41031;44.750;11.308;2024-03-23T12:19:58;12.23;;;5.60;;
55134;SDS011;41031;44.750;11.308;2024-03-23T12:22:24;6.83;;;4.53;;
55134;SDS011;41031;44.750;11.308;2024-03-23T12:24:51;7.20;;;5.03;;
55134;SDS011;41031;44.750;11.308;2024-03-23T12:27:18;8.67;;;5.33;;
55134;SDS011;41031;44.750;11.308;2024-03-23T12:29:44;7.43;;;5.30;;
55134;SDS011;41031;44.750;11.308;2024-03-23T12:32:11;7.40;;;6.00;;
55134;SDS011;41031;44.750;11.308;2024-03-23T12:34:38;8.30;;;5.70;;
55134;SDS011;41031;44.750;11.308;2024-03-23T12:37:07;10.90;;;5.80;;
55134;SDS011;41031;44.750;11.308;2024-03-23T12:39:38;7.03;;;5.50;;
55134;SDS011;41031;44.750;11.308;2024-03-23T12:42:08;6.60;;;5.40;;
55134;SDS011;41031;44.750;11.308;2024-03-23T12:44:34;7.67;;;6.07;;
55134;SDS011;41031;44.750;11.308;2024-03-23T12:47:01;8.53;;;5.00;;
55134;SDS011;41031;44.750;11.308;2024-03-23T12:49:28;9.40;;;6.00;;
55134;SDS011;41031;44.750;11.308;2024-03-23T12:51:55;8.07;;;5.53;;
55134;SDS011;41031;44.750;11.308;2024-03-23T12:54:22;9.37;;;6.20;;
55134;SDS011;41031;44.750;11.308;2024-03-23T12:56:49;10.00;;;5.70;;
55134;SDS011;41031;44.750;11.308;2024-03-23T12:59:15;6.50;;;5.10;;
55134;SDS011;41031;44.750;11.308;2024-03-23T13:01:44;6.40;;;4.77;;
55134;SDS011;41031;44.750;11.308;2024-03-23T13:04:11;8.57;;;4.77;;
55134;SDS011;41031;44.750;11.308;2024-03-23T13:06:37;6.53;;;4.63;;
55134;SDS011;41031;44.750;11.308;2024-03-23T13:09:04;6.50;;;4.67;;
55134;SDS011;41031;44.750;11.308;2024-03-23T13:11:33;6.27;;;4.23;;
55134;SDS011;41031;44.750;11.308;2024-03-23T13:14:02;8.13;;;5.10;;
55134;SDS011;41031;44.750;11.308;2024-03-23T13:16:30;5.93;;;3.90;;
55134;SDS011;41031;44.750;11.308;2024-03-23T13:18:56;7.27;;;4.57;;
55134;SDS011;41031;44.750;11.308;2024-03-23T13:21:23;6.67;;;4.27;;
55134;SDS011;41031;44.750;11.308;2024-03-23T13:23:49;5.60;;;4.37;;
55134;SDS011;41031;44.750;11.308;2024-03-23T13:26:16;12.77;;;4.90;;
55134;SDS011;41031;44.750;11.308;2024-03-23T13:28:42;11.03;;;4.53;;
55134;SDS011;41031;44.750;11.308;2024-03-23T13:31:10;8.77;;;5.13;;
55134;SDS011;41031;44.750;11.308;2024-03-23T13:33:36;6.13;;;4.07;;
55134;SDS011;41031;44.750;11.308;2024-03-23T13:36:03;7.60;;;5.37;;
55134;SDS011;41031;44.750;11.308;2024-03-23T13:38:30;6.07;;;4.60;;
55134;SDS011;41031;44.750;11.308;2024-03-23T13:40:57;6.73;;;4.37;;
55134;SDS011;41031;44.750;11.308;2024-03-23T13:43:27;5.57;;;4.53;;
55134;SDS011;41031;44.750;11.308;2024-03-23T13:45:57;5.70;;;5.07;;
55134;SDS011;41031;44.750;11.308;2024-03-23T13:48:25;8.40;;;4.23;;
55134;SDS011;41031;44.750;11.308;2024-03-23T13:50:59;8.83;;;4.53;;
55134;SDS011;41031;44.750;11.308;2024-03-23T13:53:29;6.10;;;4.80;;
55134;SDS011;41031;44.750;11.308;2024-03-23T13:55:56;5.90;;;4.00;;
55134;SDS011;41031;44.750;11.308;2024-03-23T13:58:26;6.53;;;4.77;;
55134;SDS011;41031;44.750;11.308;2024-03-23T14:00:52;7.10;;;4.03;;
55134;SDS011;41031;44.750;11.308;2024-03-23T14:03:19;5.57;;;4.50;;
55134;SDS011;41031;44.750;11.308;2024-03-23T14:05:45;8.77;;;3.80;;
55134;SDS011;41031;44.750;11.308;2024-03-23T14:08:13;5.57;;;4.80;;
55134;SDS011;41031;44.750;11.308;2024-03-23T14:10:42;6.87;;;4.23;;
55134;SDS011;41031;44.750;11.308;2024-03-23T14:13:08;7.20;;;4.87;;
55134;SDS011;41031;44.750;11.308;2024-03-23T14:15:35;6.90;;;4.43;;
55134;SDS011;41031;44.750;11.308;2024-03-23T14:18:04;4.87;;;4.37;;
55134;SDS011;41031;44.750;11.308;2024-03-23T14:20:31;6.43;;;4.40;;
55134;SDS011;41031;44.750;11.308;2024-03-23T14:22:57;7.00;;;4.87;;
55134;SDS011;41031;44.750;11.308;2024-03-23T14:25:24;10.27;;;4.80;;
55134;SDS011;41031;44.750;11.308;2024-03-23T14:27:53;6.20;;;4.53;;
55134;SDS011;41031;44.750;11.308;2024-03-23T14:30:19;9.30;;;5.50;;
55134;SDS011;41031;44.750;11.308;2024-03-23T14:32:45;5.50;;;4.57;;
55134;SDS011;41031;44.750;11.308;2024-03-23T14:35:12;5.90;;;4.67;;
55134;SDS011;41031;44.750;11.308;2024-03-23T14:37:38;6.10;;;4.43;;
55134;SDS011;41031;44.750;11.308;2024-03-23T14:40:05;7.83;;;4.20;;
55134;SDS011;41031;44.750;11.308;2024-03-23T14:42:32;5.27;;;3.87;;
55134;SDS011;41031;44.750;11.308;2024-03-23T14:44:58;11.73;;;5.00;;
55134;SDS011;41031;44.750;11.308;2024-03-23T14:47:25;6.53;;;4.93;;
55134;SDS011;41031;44.750;11.308;2024-03-23T14:49:51;7.60;;;5.20;;
55134;SDS011;41031;44.750;11.308;2024-03-23T14:52:18;5.43;;;4.57;;
55134;SDS011;41031;44.750;11.308;2024-03-23T14:54:45;6.70;;;4.83;;
55134;SDS011;41031;44.750;11.308;2024-03-23T14:57:12;6.93;;;4.83;;
55134;SDS011;41031;44.750;11.308;2024-03-23T14:59:38;8.93;;;5.10;;
55134;SDS011;41031;44.750;11.308;2024-03-23T15:02:06;6.10;;;4.87;;
55134;SDS011;41031;44.750;11.308;2024-03-23T15:04:33;7.67;;;4.53;;
55134;SDS011;41031;44.750;11.308;2024-03-23T15:07:00;9.30;;;4.83;;
55134;SDS011;41031;44.750;11.308;2024-03-23T15:09:26;6.97;;;4.50;;
55134;SDS011;41031;44.750;11.308;2024-03-23T15:11:53;5.43;;;4.10;;
55134;SDS011;41031;44.750;11.308;2024-03-23T15:14:23;5.07;;;4.27;;
55134;SDS011;41031;44.750;11.308;2024-03-23T15:16:49;4.33;;;3.80;;
55134;SDS011;41031;44.750;11.308;2024-03-23T15:19:16;5.87;;;4.43;;
55134;SDS011;41031;44.750;11.308;2024-03-23T15:21:43;6.77;;;4.70;;
55134;SDS011;41031;44.750;11.308;2024-03-23T15:24:10;5.70;;;4.63;;
55134;SDS011;41031;44.750;11.308;2024-03-23T15:26:58;5.67;;;4.30;;
55134;SDS011;41031;44.750;11.308;2024-03-23T15:30:01;12.10;;;4.90;;
55134;SDS011;41031;44.750;11.308;2024-03-23T15:32:27;11.53;;;4.60;;
55134;SDS011;41031;44.750;11.308;2024-03-23T15:34:54;6.60;;;4.17;;
55134;SDS011;41031;44.750;11.308;2024-03-23T15:37:20;6.67;;;4.77;;
55134;SDS011;41031;44.750;11.308;2024-03-23T15:39:46;9.10;;;4.77;;
55134;SDS011;41031;44.750;11.308;2024-03-23T15:42:12;10.10;;;4.97;;
55134;SDS011;41031;44.750;11.308;2024-03-23T15:44:39;6.60;;;4.30;;
55134;SDS011;41031;44.750;11.308;2024-03-23T15:47:05;5.40;;;3.93;;
55134;SDS011;41031;44.750;11.308;2024-03-23T15:49:31;5.63;;;3.97;;